Minerva Anna — SVNP — position and weather

sailwx.info

Track history (hours):
 
Tides and Currents Weather Stations Pressure Air Temp Water Temp Dewpoint Dewpoint Depression Visibility Wind Speed Wind Dir Waves Ship Positions

Minerva Anna

Last reported at 2015-Sep-01 01:33 UTC. Time now 2015-Sep-03 06:45 UTC.
Position N 39°17' W 011°48'.

Length 183 m; draft 12.7 m.

Type: Ship. MMSI: 240729000.

Date/timePositionNaut miles runAvg speedWind from/ knotsBaromVisibWave heightAir tempDewpointWater temp
2015-Sep-01 01:33N 39°17' W 011°48'  
2015-Aug-29 09:22N 50°04' W 002°30'2110.3
2015-Aug-29 07:19N 50°10' W 001°59'7 7.9
2015-Aug-29 06:24N 50°12' W 001°48'4711.4
2015-Aug-29 02:19N 50°25' W 000°38'2313.3
2015-Aug-29 00:34N 50°32' W 000°03'1212.2
2015-Aug-28 23:33N 50°35' E 000°16'1111.2
2015-Aug-28 22:33N 50°37' E 000°33'1010.1
2015-Aug-28 21:33N 50°43' E 000°47'10 9.7
2015-Aug-28 20:34N 50°48' E 000°59'1010.2
2015-Aug-28 19:33N 50°56' E 001°11'1212.2
2015-Aug-28 18:34N 51°03' E 001°25'1413.6
2015-Aug-28 17:34N 51°12' E 001°42'1312.9
2015-Aug-28 16:33N 51°23' E 001°52'1111.5
2015-Aug-28 15:33N 51°32' E 002°03'1111.1
2015-Aug-28 14:33N 51°40' E 002°16'1110.7
2015-Aug-28 13:33N 51°48' E 002°27'4511.0
2015-Aug-28 09:28N 52°30' E 002°53'1213.1
2015-Aug-28 08:32N 52°41' E 003°03'1313.2
2015-Aug-28 07:32N 52°53' E 003°13'1313.2
2015-Aug-28 06:33N 53°05' E 003°20'1312.8
2015-Aug-28 05:32N 53°17' E 003°27'1211.4
2015-Aug-28 04:27N 53°29' E 003°33'2110.9
2015-Aug-28 02:32N 53°47' E 003°50'1211.8
2015-Aug-28 01:33N 53°54' E 004°06'1212.3
2015-Aug-28 00:32N 54°02' E 004°22'1212.3
2015-Aug-27 23:31N 54°14' E 004°31'1212.1
2015-Aug-27 22:32N 54°23' E 004°44'27410.2
2015-Aug-26 19:32N 57°56' E 009°55'1211.8
2015-Aug-26 18:31N 58°01' E 010°15'1212.9
2015-Aug-26 17:33N 58°06' E 010°37'1312.5
2015-Aug-26 16:33N 58°11' E 010°59'9 9.3
2015-Aug-26 15:33N 58°16' E 011°14'8 8.4
2015-Aug-26 14:33N 58°22' E 011°26'0 0.3
2015-Aug-26 13:33N 58°21' E 011°26'0 0.0
2015-Aug-26 12:27N 58°21' E 011°26'0 0.0
2015-Aug-26 11:33N 58°21' E 011°26'0 0.0
2015-Aug-26 10:33N 58°21' E 011°26'0 0.0
2015-Aug-26 09:24N 58°21' E 011°26'0 0.0
2015-Aug-26 08:33N 58°21' E 011°26'0 0.0
2015-Aug-26 07:33N 58°21' E 011°26'0 0.0
2015-Aug-26 06:30N 58°21' E 011°26'0 0.0
2015-Aug-26 05:33N 58°21' E 011°26'0 0.0
2015-Aug-26 04:33N 58°21' E 011°26'0 0.0
2015-Aug-26 03:30N 58°21' E 011°26'0 0.0
2015-Aug-26 02:33N 58°21' E 011°26'0 0.0
2015-Aug-26 01:33N 58°21' E 011°26'0 0.0
2015-Aug-26 00:33N 58°21' E 011°26'0 0.0
2015-Aug-25 23:33N 58°21' E 011°26'0 0.0
2015-Aug-25 22:33N 58°21' E 011°26'0 0.0
2015-Aug-25 21:33N 58°21' E 011°26'0 0.0
2015-Aug-25 20:33N 58°21' E 011°26'0 0.0
2015-Aug-25 19:33N 58°21' E 011°26'0 0.0
2015-Aug-25 18:33N 58°21' E 011°26'0 0.0
2015-Aug-25 17:33N 58°21' E 011°26'0 0.0
2015-Aug-25 16:33N 58°21' E 011°26'0 0.0
2015-Aug-25 15:30N 58°21' E 011°26'0 0.0
2015-Aug-25 14:33N 58°21' E 011°26'0 0.0
2015-Aug-25 13:33N 58°21' E 011°26'0 0.0
2015-Aug-25 12:33N 58°21' E 011°26'0 0.0
2015-Aug-25 11:33N 58°21' E 011°26'0 0.0
2015-Aug-25 10:30N 58°21' E 011°26'0 0.0
2015-Aug-25 09:33N 58°21' E 011°26'0 0.0
2015-Aug-25 08:33N 58°21' E 011°26'0 0.0
2015-Aug-25 07:33N 58°21' E 011°26'0 0.0
2015-Aug-25 06:30N 58°21' E 011°26'0 0.0
2015-Aug-25 05:27N 58°21' E 011°26'0 0.0
2015-Aug-25 04:30N 58°21' E 011°26'0 0.0
2015-Aug-25 03:33N 58°21' E 011°26'0 0.0
2015-Aug-25 02:33N 58°21' E 011°26'0 0.0
2015-Aug-25 01:30N 58°21' E 011°26'0 0.0
2015-Aug-25 00:33N 58°21' E 011°26'0 0.0
2015-Aug-24 23:33N 58°21' E 011°26'0 0.0
2015-Aug-24 22:33N 58°21' E 011°26'1 0.6
2015-Aug-24 21:33N 58°21' E 011°25'8 8.5
2015-Aug-24 20:34N 58°15' E 011°13'7 6.7
2015-Aug-24 19:34N 58°12' E 011°02'5 5.2
2015-Aug-24 18:34N 58°07' E 011°02'5 4.6
2015-Aug-24 17:33N 58°02' E 011°02'4 4.3
2015-Aug-24 16:34N 57°58' E 011°01'4 4.4
2015-Aug-24 15:34N 57°54' E 010°60'7 6.6
2015-Aug-24 14:33N 57°47' E 011°01'8 7.6
2015-Aug-24 13:34N 57°41' E 010°53'7 6.9
2015-Aug-24 12:33N 57°38' E 010°41'1 0.8
2015-Aug-24 11:34N 57°38' E 010°40'0 0.0
2015-Aug-24 10:34N 57°38' E 010°40'0 0.1
2015-Aug-24 09:34N 57°38' E 010°40'0 0.0
2015-Aug-24 08:34N 57°38' E 010°40'0 0.0
2015-Aug-24 07:33N 57°38' E 010°40'0 0.0
2015-Aug-24 06:33N 57°38' E 010°40'0 0.0
2015-Aug-24 05:33N 57°38' E 010°40'0 0.0
2015-Aug-24 04:34N 57°38' E 010°40'0 0.0
2015-Aug-24 03:34N 57°38' E 010°40'0 0.0
2015-Aug-24 02:33N 57°38' E 010°40'0 0.0
2015-Aug-24 01:33N 57°38' E 010°40'0 0.0
2015-Aug-24 00:34N 57°38' E 010°40'0 0.0
2015-Aug-23 23:34N 57°38' E 010°40'0 0.0
2015-Aug-23 22:34N 57°38' E 010°40'0 0.0
2015-Aug-23 21:34N 57°38' E 010°40'0 0.0
2015-Aug-23 20:33N 57°38' E 010°40'0 0.0
2015-Aug-23 19:34N 57°38' E 010°40'0 0.0
2015-Aug-23 18:34N 57°38' E 010°40'0 0.0
2015-Aug-23 17:33N 57°38' E 010°40'0 0.0
2015-Aug-23 16:34N 57°38' E 010°40'0 0.0
2015-Aug-23 15:33N 57°38' E 010°40'0 0.0
2015-Aug-23 14:33N 57°38' E 010°40'0 0.0
2015-Aug-23 13:33N 57°38' E 010°40'0 0.0
2015-Aug-23 12:33N 57°38' E 010°40'0 0.0
2015-Aug-23 11:33N 57°38' E 010°40'0 0.0
2015-Aug-23 10:34N 57°38' E 010°40'0 0.0
2015-Aug-23 09:34N 57°38' E 010°40'0 0.0
2015-Aug-23 08:34N 57°38' E 010°40'0 0.1
2015-Aug-23 07:34N 57°38' E 010°40'4 4.4
2015-Aug-23 06:34N 57°41' E 010°46'6 5.8
2015-Aug-23 05:34N 57°47' E 010°43'7 7.3
2015-Aug-23 04:34N 57°48' E 010°29'7 7.0
2015-Aug-23 03:33N 57°47' E 010°16'6 6.0
2015-Aug-23 02:33N 57°48' E 010°05'5 5.0
2015-Aug-23 01:33N 57°47' E 009°56'5 4.9
2015-Aug-23 00:33N 57°46' E 009°47'5 4.9
2015-Aug-22 23:34N 57°45' E 009°38'5 5.4
2015-Aug-22 22:34N 57°45' E 009°28'6 5.6
2015-Aug-22 21:34N 57°44' E 009°17'6 5.6
2015-Aug-22 20:33N 57°41' E 009°08'65 5.9
2015-Aug-22 09:33N 57°02' E 007°33'7 7.2
2015-Aug-22 08:34N 56°55' E 007°26'7 7.1
2015-Aug-22 07:33N 56°49' E 007°19'7 7.1
2015-Aug-22 06:34N 56°44' E 007°11'7 7.0
2015-Aug-22 05:33N 56°38' E 007°04'7 6.9
2015-Aug-22 04:33N 56°32' E 006°58'7 6.9
2015-Aug-22 03:33N 56°26' E 006°50'7 6.8
2015-Aug-22 02:34N 56°21' E 006°43'  
Track history (hours):
 
Tides and Currents Weather Stations Pressure Air Temp Water Temp Dewpoint Dewpoint Depression Visibility Wind Speed Wind Dir Waves Ship Positions

Minerva Anna

Last reported at 2015-Sep-01 01:33 UTC. Time now 2015-Sep-03 06:45 UTC.
Position N 39°17' W 011°48'.

Length 183 m; draft 12.7 m.

Type: Ship. MMSI: 240729000.

Date/timePositionNaut miles runAvg speedWind from/ knotsBaromVisibWave heightAir tempDewpointWater temp
2015-Sep-01 01:33N 39°17' W 011°48'  
2015-Aug-29 09:22N 50°04' W 002°30'2110.3
2015-Aug-29 07:19N 50°10' W 001°59'7 7.9
2015-Aug-29 06:24N 50°12' W 001°48'4711.4
2015-Aug-29 02:19N 50°25' W 000°38'2313.3
2015-Aug-29 00:34N 50°32' W 000°03'1212.2
2015-Aug-28 23:33N 50°35' E 000°16'1111.2
2015-Aug-28 22:33N 50°37' E 000°33'1010.1
2015-Aug-28 21:33N 50°43' E 000°47'10 9.7
2015-Aug-28 20:34N 50°48' E 000°59'1010.2
2015-Aug-28 19:33N 50°56' E 001°11'1212.2
2015-Aug-28 18:34N 51°03' E 001°25'1413.6
2015-Aug-28 17:34N 51°12' E 001°42'1312.9
2015-Aug-28 16:33N 51°23' E 001°52'1111.5
2015-Aug-28 15:33N 51°32' E 002°03'1111.1
2015-Aug-28 14:33N 51°40' E 002°16'1110.7
2015-Aug-28 13:33N 51°48' E 002°27'4511.0
2015-Aug-28 09:28N 52°30' E 002°53'1213.1
2015-Aug-28 08:32N 52°41' E 003°03'1313.2
2015-Aug-28 07:32N 52°53' E 003°13'1313.2
2015-Aug-28 06:33N 53°05' E 003°20'1312.8
2015-Aug-28 05:32N 53°17' E 003°27'1211.4
2015-Aug-28 04:27N 53°29' E 003°33'2110.9
2015-Aug-28 02:32N 53°47' E 003°50'1211.8
2015-Aug-28 01:33N 53°54' E 004°06'1212.3
2015-Aug-28 00:32N 54°02' E 004°22'1212.3
2015-Aug-27 23:31N 54°14' E 004°31'1212.1
2015-Aug-27 22:32N 54°23' E 004°44'27410.2
2015-Aug-26 19:32N 57°56' E 009°55'1211.8
2015-Aug-26 18:31N 58°01' E 010°15'1212.9
2015-Aug-26 17:33N 58°06' E 010°37'1312.5
2015-Aug-26 16:33N 58°11' E 010°59'9 9.3
2015-Aug-26 15:33N 58°16' E 011°14'8 8.4
2015-Aug-26 14:33N 58°22' E 011°26'0 0.3
2015-Aug-26 13:33N 58°21' E 011°26'0 0.0
2015-Aug-26 12:27N 58°21' E 011°26'0 0.0
2015-Aug-26 11:33N 58°21' E 011°26'0 0.0
2015-Aug-26 10:33N 58°21' E 011°26'0 0.0
2015-Aug-26 09:24N 58°21' E 011°26'0 0.0
2015-Aug-26 08:33N 58°21' E 011°26'0 0.0
2015-Aug-26 07:33N 58°21' E 011°26'0 0.0
2015-Aug-26 06:30N 58°21' E 011°26'0 0.0
2015-Aug-26 05:33N 58°21' E 011°26'0 0.0
2015-Aug-26 04:33N 58°21' E 011°26'0 0.0
2015-Aug-26 03:30N 58°21' E 011°26'0 0.0
2015-Aug-26 02:33N 58°21' E 011°26'0 0.0
2015-Aug-26 01:33N 58°21' E 011°26'0 0.0
2015-Aug-26 00:33N 58°21' E 011°26'0 0.0
2015-Aug-25 23:33N 58°21' E 011°26'0 0.0
2015-Aug-25 22:33N 58°21' E 011°26'0 0.0
2015-Aug-25 21:33N 58°21' E 011°26'0 0.0
2015-Aug-25 20:33N 58°21' E 011°26'0 0.0
2015-Aug-25 19:33N 58°21' E 011°26'0 0.0
2015-Aug-25 18:33N 58°21' E 011°26'0 0.0
2015-Aug-25 17:33N 58°21' E 011°26'0 0.0
2015-Aug-25 16:33N 58°21' E 011°26'0 0.0
2015-Aug-25 15:30N 58°21' E 011°26'0 0.0
2015-Aug-25 14:33N 58°21' E 011°26'0 0.0
2015-Aug-25 13:33N 58°21' E 011°26'0 0.0
2015-Aug-25 12:33N 58°21' E 011°26'0 0.0
2015-Aug-25 11:33N 58°21' E 011°26'0 0.0
2015-Aug-25 10:30N 58°21' E 011°26'0 0.0
2015-Aug-25 09:33N 58°21' E 011°26'0 0.0
2015-Aug-25 08:33N 58°21' E 011°26'0 0.0
2015-Aug-25 07:33N 58°21' E 011°26'0 0.0
2015-Aug-25 06:30N 58°21' E 011°26'0 0.0
2015-Aug-25 05:27N 58°21' E 011°26'0 0.0
2015-Aug-25 04:30N 58°21' E 011°26'0 0.0
2015-Aug-25 03:33N 58°21' E 011°26'0 0.0
2015-Aug-25 02:33N 58°21' E 011°26'0 0.0
2015-Aug-25 01:30N 58°21' E 011°26'0 0.0
2015-Aug-25 00:33N 58°21' E 011°26'0 0.0
2015-Aug-24 23:33N 58°21' E 011°26'0 0.0
2015-Aug-24 22:33N 58°21' E 011°26'1 0.6
2015-Aug-24 21:33N 58°21' E 011°25'8 8.5
2015-Aug-24 20:34N 58°15' E 011°13'7 6.7
2015-Aug-24 19:34N 58°12' E 011°02'5 5.2
2015-Aug-24 18:34N 58°07' E 011°02'5 4.6
2015-Aug-24 17:33N 58°02' E 011°02'4 4.3
2015-Aug-24 16:34N 57°58' E 011°01'4 4.4
2015-Aug-24 15:34N 57°54' E 010°60'7 6.6
2015-Aug-24 14:33N 57°47' E 011°01'8 7.6
2015-Aug-24 13:34N 57°41' E 010°53'7 6.9
2015-Aug-24 12:33N 57°38' E 010°41'1 0.8
2015-Aug-24 11:34N 57°38' E 010°40'0 0.0
2015-Aug-24 10:34N 57°38' E 010°40'0 0.1
2015-Aug-24 09:34N 57°38' E 010°40'0 0.0
2015-Aug-24 08:34N 57°38' E 010°40'0 0.0
2015-Aug-24 07:33N 57°38' E 010°40'0 0.0
2015-Aug-24 06:33N 57°38' E 010°40'0 0.0
2015-Aug-24 05:33N 57°38' E 010°40'0 0.0
2015-Aug-24 04:34N 57°38' E 010°40'0 0.0
2015-Aug-24 03:34N 57°38' E 010°40'0 0.0
2015-Aug-24 02:33N 57°38' E 010°40'0 0.0
2015-Aug-24 01:33N 57°38' E 010°40'0 0.0
2015-Aug-24 00:34N 57°38' E 010°40'0 0.0
2015-Aug-23 23:34N 57°38' E 010°40'0 0.0
2015-Aug-23 22:34N 57°38' E 010°40'0 0.0
2015-Aug-23 21:34N 57°38' E 010°40'0 0.0
2015-Aug-23 20:33N 57°38' E 010°40'0 0.0
2015-Aug-23 19:34N 57°38' E 010°40'0 0.0
2015-Aug-23 18:34N 57°38' E 010°40'0 0.0
2015-Aug-23 17:33N 57°38' E 010°40'0 0.0
2015-Aug-23 16:34N 57°38' E 010°40'0 0.0
2015-Aug-23 15:33N 57°38' E 010°40'0 0.0
2015-Aug-23 14:33N 57°38' E 010°40'0 0.0
2015-Aug-23 13:33N 57°38' E 010°40'0 0.0
2015-Aug-23 12:33N 57°38' E 010°40'0 0.0
2015-Aug-23 11:33N 57°38' E 010°40'0 0.0
2015-Aug-23 10:34N 57°38' E 010°40'0 0.0
2015-Aug-23 09:34N 57°38' E 010°40'0 0.0
2015-Aug-23 08:34N 57°38' E 010°40'0 0.1
2015-Aug-23 07:34N 57°38' E 010°40'4 4.4
2015-Aug-23 06:34N 57°41' E 010°46'6 5.8
2015-Aug-23 05:34N 57°47' E 010°43'7 7.3
2015-Aug-23 04:34N 57°48' E 010°29'7 7.0
2015-Aug-23 03:33N 57°47' E 010°16'6 6.0
2015-Aug-23 02:33N 57°48' E 010°05'5 5.0
2015-Aug-23 01:33N 57°47' E 009°56'5 4.9
2015-Aug-23 00:33N 57°46' E 009°47'5 4.9
2015-Aug-22 23:34N 57°45' E 009°38'5 5.4
2015-Aug-22 22:34N 57°45' E 009°28'6 5.6
2015-Aug-22 21:34N 57°44' E 009°17'6 5.6
2015-Aug-22 20:33N 57°41' E 009°08'65 5.9
2015-Aug-22 09:33N 57°02' E 007°33'7 7.2
2015-Aug-22 08:34N 56°55' E 007°26'7 7.1
2015-Aug-22 07:33N 56°49' E 007°19'7 7.1
2015-Aug-22 06:34N 56°44' E 007°11'7 7.0
2015-Aug-22 05:33N 56°38' E 007°04'7 6.9
2015-Aug-22 04:33N 56°32' E 006°58'7 6.9
2015-Aug-22 03:33N 56°26' E 006°50'7 6.8
2015-Aug-22 02:34N 56°21' E 006°43'  

Dump ship's entire track history